MSC Alexa — 3FPP6 — position and weather

sailwx.info

Track history (hours):
 
Tides and Currents Weather Stations Pressure Air Temp Water Temp Dewpoint Dewpoint Depression Visibility Wind Speed Wind Dir Waves Ship Positions

MSC Alexa

Last reported at 2017-Aug-19 07:39 UTC. Time now 2017-Aug-24 01:10 UTC.
Position N 01°14' E 104°02'.

Length 243 m; draft 8.6 m.

Type: Ship (hazmat cat A). MMSI: 356904000.

Date/timePositionNaut miles runAvg speedWind from/ knotsBaromVisibWave heightAir tempDewpointWater temp
2017-Aug-19 07:39N 01°14' E 104°02'312.8
2017-Aug-19 07:27N 01°14' E 103°60'613.5
2017-Aug-19 07:00N 01°12' E 103°54'510.1
2017-Aug-19 06:30N 01°12' E 103°49'2 5.0
2017-Aug-19 06:00N 01°14' E 103°47'3 5.4
2017-Aug-19 05:30N 01°16' E 103°46'0 0.0
2017-Aug-19 04:59N 01°16' E 103°46'0 0.0
2017-Aug-19 04:29N 01°16' E 103°46'0 0.0
2017-Aug-19 03:59N 01°16' E 103°46'0 0.0
2017-Aug-19 03:29N 01°16' E 103°46'0 0.0
2017-Aug-19 02:58N 01°16' E 103°46'0 0.0
2017-Aug-19 02:28N 01°16' E 103°46'0 0.0
2017-Aug-19 01:55N 01°16' E 103°46'0 0.0
2017-Aug-19 01:28N 01°16' E 103°46'0 0.0
2017-Aug-19 00:57N 01°16' E 103°46'0 0.0
2017-Aug-19 00:30N 01°16' E 103°46'0 0.0
2017-Aug-18 23:57N 01°16' E 103°46'0 0.0
2017-Aug-18 23:30N 01°16' E 103°46'0 0.0
2017-Aug-18 22:57N 01°16' E 103°46'0 0.0
2017-Aug-18 22:29N 01°16' E 103°46'0 0.0
2017-Aug-18 21:59N 01°16' E 103°46'0 0.0
2017-Aug-18 21:29N 01°16' E 103°46'0 0.0
2017-Aug-18 20:59N 01°16' E 103°46'0 0.0
2017-Aug-18 20:26N 01°16' E 103°46'0 0.0
2017-Aug-18 19:58N 01°16' E 103°46'0 0.0
2017-Aug-18 19:28N 01°16' E 103°46'0 0.0
2017-Aug-18 18:52N 01°16' E 103°46'0 0.0
2017-Aug-18 18:22N 01°16' E 103°46'0 0.0
2017-Aug-18 18:00N 01°16' E 103°46'0 0.0
2017-Aug-18 17:30N 01°16' E 103°46'0 0.0
2017-Aug-18 17:00N 01°16' E 103°46'0 0.0
2017-Aug-18 16:27N 01°16' E 103°46'0 0.0
2017-Aug-18 15:57N 01°16' E 103°46'0 0.0
2017-Aug-18 15:29N 01°16' E 103°46'0 0.3
2017-Aug-18 15:00N 01°16' E 103°46'2 3.1
2017-Aug-18 14:30N 01°15' E 103°47'8 7.6
2017-Aug-18 13:30N 01°14' E 103°54'2 3.3
2017-Aug-18 13:00N 01°14' E 103°56'3 6.0
2017-Aug-18 12:30N 01°15' E 103°59'3 4.8
2017-Aug-18 11:57N 01°16' E 104°02'3 6.4
2017-Aug-18 11:28N 01°16' E 104°05'  
2017-Aug-12 20:36N 01°14' E 104°02'317.5
2017-Aug-12 20:25N 01°14' E 103°59'717.1
2017-Aug-12 19:59N 01°12' E 103°52'5 9.9
2017-Aug-12 19:30N 01°13' E 103°47'3 6.1
2017-Aug-12 18:59N 01°16' E 103°46'0 0.0
2017-Aug-12 18:29N 01°16' E 103°46'0 0.0
2017-Aug-12 17:59N 01°16' E 103°46'0 0.0
2017-Aug-12 17:29N 01°16' E 103°46'0 0.0
2017-Aug-12 16:55N 01°16' E 103°46'0 0.0
2017-Aug-12 16:28N 01°16' E 103°46'0 0.0
2017-Aug-12 15:58N 01°16' E 103°46'0 0.0
2017-Aug-12 15:28N 01°16' E 103°46'0 0.0
2017-Aug-12 14:58N 01°16' E 103°46'0 0.0
2017-Aug-12 14:30N 01°16' E 103°46'0 0.0
2017-Aug-12 13:57N 01°16' E 103°46'0 0.0
2017-Aug-12 13:30N 01°16' E 103°46'0 0.0
2017-Aug-12 12:57N 01°16' E 103°46'0 0.0
2017-Aug-12 12:30N 01°16' E 103°46'0 0.0
2017-Aug-12 11:59N 01°16' E 103°46'0 0.0
2017-Aug-12 11:29N 01°16' E 103°46'0 0.0
2017-Aug-12 10:59N 01°16' E 103°46'0 0.0
2017-Aug-12 10:29N 01°16' E 103°46'0 0.0
2017-Aug-12 09:58N 01°16' E 103°46'0 0.0
2017-Aug-12 09:28N 01°16' E 103°46'0 0.0
2017-Aug-12 08:58N 01°16' E 103°46'0 0.0
2017-Aug-12 08:28N 01°16' E 103°46'0 0.0
2017-Aug-12 07:48N 01°16' E 103°46'0 0.0
2017-Aug-12 07:30N 01°16' E 103°46'0 0.0
2017-Aug-12 07:00N 01°16' E 103°46'0 0.0
2017-Aug-12 06:30N 01°16' E 103°46'0 0.0
2017-Aug-12 05:57N 01°16' E 103°46'0 0.0
2017-Aug-12 05:26N 01°16' E 103°46'0 0.2
2017-Aug-12 05:00N 01°16' E 103°46'2 4.5
2017-Aug-12 04:30N 01°14' E 103°47'2 4.2
2017-Aug-12 03:58N 01°13' E 103°49'0 0.4
2017-Aug-12 03:19N 01°13' E 103°49'0 0.0
2017-Aug-12 02:58N 01°13' E 103°49'0 0.0
2017-Aug-12 02:22N 01°13' E 103°49'0 0.1
2017-Aug-12 01:58N 01°13' E 103°49'0 0.0
2017-Aug-12 01:30N 01°13' E 103°49'0 0.0
2017-Aug-12 01:00N 01°13' E 103°49'0 0.0
2017-Aug-12 00:30N 01°13' E 103°49'0 0.0
2017-Aug-12 00:00N 01°13' E 103°49'0 0.0
2017-Aug-11 23:30N 01°13' E 103°49'0 0.0
2017-Aug-11 22:59N 01°13' E 103°49'0 0.0
2017-Aug-11 22:29N 01°13' E 103°49'0 0.1
2017-Aug-11 21:56N 01°13' E 103°49'0 0.0
2017-Aug-11 21:23N 01°13' E 103°49'0 0.2
2017-Aug-11 20:55N 01°13' E 103°49'0 0.1
2017-Aug-11 20:28N 01°13' E 103°49'0 0.0
2017-Aug-11 19:58N 01°13' E 103°49'0 0.1
2017-Aug-11 19:19N 01°13' E 103°49'0 0.0
2017-Aug-11 18:55N 01°13' E 103°49'0 0.3
2017-Aug-11 18:30N 01°13' E 103°49'0 0.1
2017-Aug-11 18:00N 01°13' E 103°49'0 0.1
2017-Aug-11 17:30N 01°13' E 103°49'0 0.3
2017-Aug-11 16:54N 01°13' E 103°49'0 0.1
2017-Aug-11 16:30N 01°13' E 103°49'0 0.0
2017-Aug-11 15:59N 01°13' E 103°49'0 0.4
2017-Aug-11 15:30N 01°13' E 103°49'2 3.8
2017-Aug-11 15:00N 01°14' E 103°47'5 9.9
2017-Aug-11 14:30N 01°14' E 103°42'8 7.8
2017-Aug-11 13:28N 01°13' E 103°34'2 4.4
2017-Aug-11 13:00N 01°14' E 103°32'1 2.9
2017-Aug-11 12:30N 01°15' E 103°32'5 9.3
2017-Aug-11 11:59N 01°20' E 103°33'1 1.4
2017-Aug-11 11:24N 01°21' E 103°33'0 0.0
2017-Aug-11 10:57N 01°21' E 103°33'0 0.0
2017-Aug-11 10:29N 01°21' E 103°33'0 0.0
2017-Aug-11 09:56N 01°21' E 103°33'0 0.0
2017-Aug-11 09:29N 01°21' E 103°33'0 0.0
2017-Aug-11 08:56N 01°21' E 103°33'0 0.0
2017-Aug-11 08:25N 01°21' E 103°33'0 0.0
2017-Aug-11 07:58N 01°21' E 103°33'0 0.0
2017-Aug-11 07:16N 01°21' E 103°33'0 0.0
2017-Aug-11 06:58N 01°21' E 103°33'0 0.0
2017-Aug-11 06:25N 01°21' E 103°33'0 0.0
2017-Aug-11 05:57N 01°21' E 103°33'0 0.0
2017-Aug-11 05:30N 01°21' E 103°33'0 0.0
2017-Aug-11 04:57N 01°21' E 103°33'0 0.0
2017-Aug-11 04:30N 01°21' E 103°33'0 0.0
2017-Aug-11 03:57N 01°21' E 103°33'0 0.0
2017-Aug-11 03:29N 01°21' E 103°33'0 0.0
2017-Aug-11 02:56N 01°21' E 103°33'0 0.0
2017-Aug-11 02:29N 01°21' E 103°33'0 0.0
2017-Aug-11 01:59N 01°21' E 103°33'0 0.0
2017-Aug-11 01:28N 01°21' E 103°33'0 0.0
2017-Aug-11 00:58N 01°21' E 103°33'0 0.0
2017-Aug-11 00:28N 01°21' E 103°33'0 0.0
2017-Aug-10 23:55N 01°21' E 103°33'0 0.0
2017-Aug-10 23:16N 01°21' E 103°33'0 0.0
2017-Aug-10 23:00N 01°21' E 103°33'2 3.3
2017-Aug-10 22:30N 01°19' E 103°33'5 9.8
2017-Aug-10 22:00N 01°15' E 103°32'1 2.8
2017-Aug-10 21:30N 01°13' E 103°32'3 6.9
2017-Aug-10 21:00N 01°12' E 103°36'4 8.6
2017-Aug-10 20:30N 01°11' E 103°40'510.0
2017-Aug-10 19:59N 01°08' E 103°44'5 9.6
2017-Aug-10 19:30N 01°11' E 103°49'510.1
2017-Aug-10 19:00N 01°13' E 103°53'  
Track history (hours):
 
Tides and Currents Weather Stations Pressure Air Temp Water Temp Dewpoint Dewpoint Depression Visibility Wind Speed Wind Dir Waves Ship Positions

MSC Alexa

Last reported at 2017-Aug-19 07:39 UTC. Time now 2017-Aug-24 01:10 UTC.
Position N 01°14' E 104°02'.

Length 243 m; draft 8.6 m.

Type: Ship (hazmat cat A). MMSI: 356904000.

Date/timePositionNaut miles runAvg speedWind from/ knotsBaromVisibWave heightAir tempDewpointWater temp
2017-Aug-19 07:39N 01°14' E 104°02'312.8
2017-Aug-19 07:27N 01°14' E 103°60'613.5
2017-Aug-19 07:00N 01°12' E 103°54'510.1
2017-Aug-19 06:30N 01°12' E 103°49'2 5.0
2017-Aug-19 06:00N 01°14' E 103°47'3 5.4
2017-Aug-19 05:30N 01°16' E 103°46'0 0.0
2017-Aug-19 04:59N 01°16' E 103°46'0 0.0
2017-Aug-19 04:29N 01°16' E 103°46'0 0.0
2017-Aug-19 03:59N 01°16' E 103°46'0 0.0
2017-Aug-19 03:29N 01°16' E 103°46'0 0.0
2017-Aug-19 02:58N 01°16' E 103°46'0 0.0
2017-Aug-19 02:28N 01°16' E 103°46'0 0.0
2017-Aug-19 01:55N 01°16' E 103°46'0 0.0
2017-Aug-19 01:28N 01°16' E 103°46'0 0.0
2017-Aug-19 00:57N 01°16' E 103°46'0 0.0
2017-Aug-19 00:30N 01°16' E 103°46'0 0.0
2017-Aug-18 23:57N 01°16' E 103°46'0 0.0
2017-Aug-18 23:30N 01°16' E 103°46'0 0.0
2017-Aug-18 22:57N 01°16' E 103°46'0 0.0
2017-Aug-18 22:29N 01°16' E 103°46'0 0.0
2017-Aug-18 21:59N 01°16' E 103°46'0 0.0
2017-Aug-18 21:29N 01°16' E 103°46'0 0.0
2017-Aug-18 20:59N 01°16' E 103°46'0 0.0
2017-Aug-18 20:26N 01°16' E 103°46'0 0.0
2017-Aug-18 19:58N 01°16' E 103°46'0 0.0
2017-Aug-18 19:28N 01°16' E 103°46'0 0.0
2017-Aug-18 18:52N 01°16' E 103°46'0 0.0
2017-Aug-18 18:22N 01°16' E 103°46'0 0.0
2017-Aug-18 18:00N 01°16' E 103°46'0 0.0
2017-Aug-18 17:30N 01°16' E 103°46'0 0.0
2017-Aug-18 17:00N 01°16' E 103°46'0 0.0
2017-Aug-18 16:27N 01°16' E 103°46'0 0.0
2017-Aug-18 15:57N 01°16' E 103°46'0 0.0
2017-Aug-18 15:29N 01°16' E 103°46'0 0.3
2017-Aug-18 15:00N 01°16' E 103°46'2 3.1
2017-Aug-18 14:30N 01°15' E 103°47'8 7.6
2017-Aug-18 13:30N 01°14' E 103°54'2 3.3
2017-Aug-18 13:00N 01°14' E 103°56'3 6.0
2017-Aug-18 12:30N 01°15' E 103°59'3 4.8
2017-Aug-18 11:57N 01°16' E 104°02'3 6.4
2017-Aug-18 11:28N 01°16' E 104°05'  
2017-Aug-12 20:36N 01°14' E 104°02'317.5
2017-Aug-12 20:25N 01°14' E 103°59'717.1
2017-Aug-12 19:59N 01°12' E 103°52'5 9.9
2017-Aug-12 19:30N 01°13' E 103°47'3 6.1
2017-Aug-12 18:59N 01°16' E 103°46'0 0.0
2017-Aug-12 18:29N 01°16' E 103°46'0 0.0
2017-Aug-12 17:59N 01°16' E 103°46'0 0.0
2017-Aug-12 17:29N 01°16' E 103°46'0 0.0
2017-Aug-12 16:55N 01°16' E 103°46'0 0.0
2017-Aug-12 16:28N 01°16' E 103°46'0 0.0
2017-Aug-12 15:58N 01°16' E 103°46'0 0.0
2017-Aug-12 15:28N 01°16' E 103°46'0 0.0
2017-Aug-12 14:58N 01°16' E 103°46'0 0.0
2017-Aug-12 14:30N 01°16' E 103°46'0 0.0
2017-Aug-12 13:57N 01°16' E 103°46'0 0.0
2017-Aug-12 13:30N 01°16' E 103°46'0 0.0
2017-Aug-12 12:57N 01°16' E 103°46'0 0.0
2017-Aug-12 12:30N 01°16' E 103°46'0 0.0
2017-Aug-12 11:59N 01°16' E 103°46'0 0.0
2017-Aug-12 11:29N 01°16' E 103°46'0 0.0
2017-Aug-12 10:59N 01°16' E 103°46'0 0.0
2017-Aug-12 10:29N 01°16' E 103°46'0 0.0
2017-Aug-12 09:58N 01°16' E 103°46'0 0.0
2017-Aug-12 09:28N 01°16' E 103°46'0 0.0
2017-Aug-12 08:58N 01°16' E 103°46'0 0.0
2017-Aug-12 08:28N 01°16' E 103°46'0 0.0
2017-Aug-12 07:48N 01°16' E 103°46'0 0.0
2017-Aug-12 07:30N 01°16' E 103°46'0 0.0
2017-Aug-12 07:00N 01°16' E 103°46'0 0.0
2017-Aug-12 06:30N 01°16' E 103°46'0 0.0
2017-Aug-12 05:57N 01°16' E 103°46'0 0.0
2017-Aug-12 05:26N 01°16' E 103°46'0 0.2
2017-Aug-12 05:00N 01°16' E 103°46'2 4.5
2017-Aug-12 04:30N 01°14' E 103°47'2 4.2
2017-Aug-12 03:58N 01°13' E 103°49'0 0.4
2017-Aug-12 03:19N 01°13' E 103°49'0 0.0
2017-Aug-12 02:58N 01°13' E 103°49'0 0.0
2017-Aug-12 02:22N 01°13' E 103°49'0 0.1
2017-Aug-12 01:58N 01°13' E 103°49'0 0.0
2017-Aug-12 01:30N 01°13' E 103°49'0 0.0
2017-Aug-12 01:00N 01°13' E 103°49'0 0.0
2017-Aug-12 00:30N 01°13' E 103°49'0 0.0
2017-Aug-12 00:00N 01°13' E 103°49'0 0.0
2017-Aug-11 23:30N 01°13' E 103°49'0 0.0
2017-Aug-11 22:59N 01°13' E 103°49'0 0.0
2017-Aug-11 22:29N 01°13' E 103°49'0 0.1
2017-Aug-11 21:56N 01°13' E 103°49'0 0.0
2017-Aug-11 21:23N 01°13' E 103°49'0 0.2
2017-Aug-11 20:55N 01°13' E 103°49'0 0.1
2017-Aug-11 20:28N 01°13' E 103°49'0 0.0
2017-Aug-11 19:58N 01°13' E 103°49'0 0.1
2017-Aug-11 19:19N 01°13' E 103°49'0 0.0
2017-Aug-11 18:55N 01°13' E 103°49'0 0.3
2017-Aug-11 18:30N 01°13' E 103°49'0 0.1
2017-Aug-11 18:00N 01°13' E 103°49'0 0.1
2017-Aug-11 17:30N 01°13' E 103°49'0 0.3
2017-Aug-11 16:54N 01°13' E 103°49'0 0.1
2017-Aug-11 16:30N 01°13' E 103°49'0 0.0
2017-Aug-11 15:59N 01°13' E 103°49'0 0.4
2017-Aug-11 15:30N 01°13' E 103°49'2 3.8
2017-Aug-11 15:00N 01°14' E 103°47'5 9.9
2017-Aug-11 14:30N 01°14' E 103°42'8 7.8
2017-Aug-11 13:28N 01°13' E 103°34'2 4.4
2017-Aug-11 13:00N 01°14' E 103°32'1 2.9
2017-Aug-11 12:30N 01°15' E 103°32'5 9.3
2017-Aug-11 11:59N 01°20' E 103°33'1 1.4
2017-Aug-11 11:24N 01°21' E 103°33'0 0.0
2017-Aug-11 10:57N 01°21' E 103°33'0 0.0
2017-Aug-11 10:29N 01°21' E 103°33'0 0.0
2017-Aug-11 09:56N 01°21' E 103°33'0 0.0
2017-Aug-11 09:29N 01°21' E 103°33'0 0.0
2017-Aug-11 08:56N 01°21' E 103°33'0 0.0
2017-Aug-11 08:25N 01°21' E 103°33'0 0.0
2017-Aug-11 07:58N 01°21' E 103°33'0 0.0
2017-Aug-11 07:16N 01°21' E 103°33'0 0.0
2017-Aug-11 06:58N 01°21' E 103°33'0 0.0
2017-Aug-11 06:25N 01°21' E 103°33'0 0.0
2017-Aug-11 05:57N 01°21' E 103°33'0 0.0
2017-Aug-11 05:30N 01°21' E 103°33'0 0.0
2017-Aug-11 04:57N 01°21' E 103°33'0 0.0
2017-Aug-11 04:30N 01°21' E 103°33'0 0.0
2017-Aug-11 03:57N 01°21' E 103°33'0 0.0
2017-Aug-11 03:29N 01°21' E 103°33'0 0.0
2017-Aug-11 02:56N 01°21' E 103°33'0 0.0
2017-Aug-11 02:29N 01°21' E 103°33'0 0.0
2017-Aug-11 01:59N 01°21' E 103°33'0 0.0
2017-Aug-11 01:28N 01°21' E 103°33'0 0.0
2017-Aug-11 00:58N 01°21' E 103°33'0 0.0
2017-Aug-11 00:28N 01°21' E 103°33'0 0.0
2017-Aug-10 23:55N 01°21' E 103°33'0 0.0
2017-Aug-10 23:16N 01°21' E 103°33'0 0.0
2017-Aug-10 23:00N 01°21' E 103°33'2 3.3
2017-Aug-10 22:30N 01°19' E 103°33'5 9.8
2017-Aug-10 22:00N 01°15' E 103°32'1 2.8
2017-Aug-10 21:30N 01°13' E 103°32'3 6.9
2017-Aug-10 21:00N 01°12' E 103°36'4 8.6
2017-Aug-10 20:30N 01°11' E 103°40'510.0
2017-Aug-10 19:59N 01°08' E 103°44'5 9.6
2017-Aug-10 19:30N 01°11' E 103°49'510.1
2017-Aug-10 19:00N 01°13' E 103°53'  

Dump ship's entire track history